sensor_id;sensor_type;location;lat;lon;timestamp;pressure;altitude;pressure_sealevel;temperature;humidity
85224;BME280;75619;51.316;4.824;2024-03-08T00:00:18;101534.34;;;3.54;100.00
85224;BME280;75619;51.316;4.824;2024-03-08T00:02:45;101523.16;;;3.51;100.00
85224;BME280;75619;51.316;4.824;2024-03-08T00:05:12;101519.16;;;3.41;100.00
85224;BME280;75619;51.316;4.824;2024-03-08T00:07:38;101526.13;;;3.40;100.00
85224;BME280;75619;51.316;4.824;2024-03-08T00:10:05;101519.34;;;3.35;100.00
85224;BME280;75619;51.316;4.824;2024-03-08T00:12:31;101516.69;;;3.36;100.00
85224;BME280;75619;51.316;4.824;2024-03-08T00:14:57;101518.13;;;3.45;100.00
85224;BME280;75619;51.316;4.824;2024-03-08T00:17:22;101508.56;;;3.44;100.00
85224;BME280;75619;51.316;4.824;2024-03-08T00:19:49;101505.78;;;3.50;100.00
85224;BME280;75619;51.316;4.824;2024-03-08T00:22:15;101506.75;;;3.46;100.00
85224;BME280;75619;51.316;4.824;2024-03-08T00:24:41;101505.38;;;3.36;100.00
85224;BME280;75619;51.316;4.824;2024-03-08T00:27:06;101506.50;;;3.28;100.00
85224;BME280;75619;51.316;4.824;2024-03-08T00:29:32;101504.03;;;3.24;100.00
85224;BME280;75619;51.316;4.824;2024-03-08T00:31:57;101499.63;;;3.26;100.00
85224;BME280;75619;51.316;4.824;2024-03-08T00:34:23;101499.41;;;3.32;100.00
85224;BME280;75619;51.316;4.824;2024-03-08T00:36:48;101505.66;;;3.28;100.00
85224;BME280;75619;51.316;4.824;2024-03-08T00:39:14;101495.25;;;3.26;100.00
85224;BME280;75619;51.316;4.824;2024-03-08T00:41:39;101491.88;;;3.23;100.00
85224;BME280;75619;51.316;4.824;2024-03-08T00:44:05;101493.47;;;3.27;100.00
85224;BME280;75619;51.316;4.824;2024-03-08T00:46:30;101489.97;;;3.28;100.00
85224;BME280;75619;51.316;4.824;2024-03-08T00:48:56;101492.47;;;3.31;100.00
85224;BME280;75619;51.316;4.824;2024-03-08T00:51:22;101481.47;;;3.21;100.00
85224;BME280;75619;51.316;4.824;2024-03-08T00:53:47;101483.34;;;3.18;100.00
85224;BME280;75619;51.316;4.824;2024-03-08T00:56:13;101481.97;;;3.08;100.00
85224;BME280;75619;51.316;4.824;2024-03-08T00:58:38;101478.19;;;3.16;100.00
85224;BME280;75619;51.316;4.824;2024-03-08T01:01:04;101476.69;;;3.09;100.00
85224;BME280;75619;51.316;4.824;2024-03-08T01:03:30;101466.22;;;3.09;100.00
85224;BME280;75619;51.316;4.824;2024-03-08T01:05:57;101465.63;;;3.01;100.00
85224;BME280;75619;51.316;4.824;2024-03-08T01:08:22;101470.16;;;2.96;100.00
85224;BME280;75619;51.316;4.824;2024-03-08T01:10:48;101460.28;;;3.04;100.00
85224;BME280;75619;51.316;4.824;2024-03-08T01:13:15;101465.28;;;3.12;100.00
85224;BME280;75619;51.316;4.824;2024-03-08T01:15:41;101459.50;;;3.02;100.00
85224;BME280;75619;51.316;4.824;2024-03-08T01:18:07;101456.84;;;3.04;100.00
85224;BME280;75619;51.316;4.824;2024-03-08T01:20:32;101449.84;;;3.04;100.00
85224;BME280;75619;51.316;4.824;2024-03-08T01:22:58;101448.44;;;2.96;100.00
85224;BME280;75619;51.316;4.824;2024-03-08T01:25:23;101440.09;;;2.85;100.00
85224;BME280;75619;51.316;4.824;2024-03-08T01:27:49;101444.38;;;2.86;100.00
85224;BME280;75619;51.316;4.824;2024-03-08T01:30:14;101440.78;;;2.90;100.00
85224;BME280;75619;51.316;4.824;2024-03-08T01:32:42;101438.28;;;2.87;100.00
85224;BME280;75619;51.316;4.824;2024-03-08T01:35:09;101439.16;;;2.86;100.00
85224;BME280;75619;51.316;4.824;2024-03-08T01:37:35;101438.63;;;2.76;100.00
85224;BME280;75619;51.316;4.824;2024-03-08T01:40:01;101428.13;;;2.78;100.00
85224;BME280;75619;51.316;4.824;2024-03-08T01:42:28;101430.53;;;2.84;100.00
85224;BME280;75619;51.316;4.824;2024-03-08T01:44:53;101429.72;;;2.83;100.00
85224;BME280;75619;51.316;4.824;2024-03-08T01:47:19;101419.34;;;2.80;100.00
85224;BME280;75619;51.316;4.824;2024-03-08T01:49:48;101419.03;;;2.65;100.00
85224;BME280;75619;51.316;4.824;2024-03-08T01:52:15;101426.22;;;2.57;100.00
85224;BME280;75619;51.316;4.824;2024-03-08T01:54:40;101416.66;;;2.57;100.00
85224;BME280;75619;51.316;4.824;2024-03-08T01:57:06;101410.47;;;2.60;100.00
85224;BME280;75619;51.316;4.824;2024-03-08T01:59:32;101398.97;;;2.65;100.00
85224;BME280;75619;51.316;4.824;2024-03-08T02:02:00;101396.47;;;2.62;100.00
85224;BME280;75619;51.316;4.824;2024-03-08T02:04:27;101404.47;;;2.58;100.00
85224;BME280;75619;51.316;4.824;2024-03-08T02:06:52;101402.84;;;2.54;100.00
85224;BME280;75619;51.316;4.824;2024-03-08T02:09:18;101398.28;;;2.60;100.00
85224;BME280;75619;51.316;4.824;2024-03-08T02:11:44;101394.09;;;2.55;100.00
85224;BME280;75619;51.316;4.824;2024-03-08T02:14:11;101388.84;;;2.56;100.00
85224;BME280;75619;51.316;4.824;2024-03-08T02:16:36;101391.50;;;2.55;100.00
85224;BME280;75619;51.316;4.824;2024-03-08T02:19:03;101391.56;;;2.53;100.00
85224;BME280;75619;51.316;4.824;2024-03-08T02:21:29;101385.78;;;2.43;100.00
85224;BME280;75619;51.316;4.824;2024-03-08T02:23:55;101382.59;;;2.35;100.00
85224;BME280;75619;51.316;4.824;2024-03-08T02:26:21;101381.53;;;2.41;100.00
85224;BME280;75619;51.316;4.824;2024-03-08T02:28:48;101373.84;;;2.36;100.00
85224;BME280;75619;51.316;4.824;2024-03-08T02:31:14;101381.00;;;2.30;100.00
85224;BME280;75619;51.316;4.824;2024-03-08T02:33:40;101368.75;;;2.32;100.00
85224;BME280;75619;51.316;4.824;2024-03-08T02:36:06;101367.88;;;2.33;100.00
85224;BME280;75619;51.316;4.824;2024-03-08T02:38:31;101361.75;;;2.34;100.00
85224;BME280;75619;51.316;4.824;2024-03-08T02:40:57;101366.34;;;2.26;100.00
85224;BME280;75619;51.316;4.824;2024-03-08T02:43:23;101355.84;;;2.29;100.00
85224;BME280;75619;51.316;4.824;2024-03-08T02:45:49;101353.28;;;2.27;100.00
85224;BME280;75619;51.316;4.824;2024-03-08T02:48:15;101355.44;;;2.15;100.00
85224;BME280;75619;51.316;4.824;2024-03-08T02:50:44;101336.97;;;2.21;100.00
85224;BME280;75619;51.316;4.824;2024-03-08T02:53:10;101345.88;;;2.14;100.00
85224;BME280;75619;51.316;4.824;2024-03-08T02:55:40;101342.53;;;2.10;100.00
85224;BME280;75619;51.316;4.824;2024-03-08T02:58:06;101345.22;;;2.07;100.00
85224;BME280;75619;51.316;4.824;2024-03-08T03:00:36;101340.25;;;2.00;100.00
85224;BME280;75619;51.316;4.824;2024-03-08T03:03:02;101341.13;;;2.00;100.00
85224;BME280;75619;51.316;4.824;2024-03-08T03:05:29;101330.78;;;1.97;100.00
85224;BME280;75619;51.316;4.824;2024-03-08T03:07:57;101326.69;;;1.90;100.00
85224;BME280;75619;51.316;4.824;2024-03-08T03:10:24;101333.69;;;1.88;100.00
85224;BME280;75619;51.316;4.824;2024-03-08T03:12:50;101332.91;;;1.85;100.00
85224;BME280;75619;51.316;4.824;2024-03-08T03:15:16;101336.25;;;1.90;100.00
85224;BME280;75619;51.316;4.824;2024-03-08T03:17:48;101332.63;;;1.94;100.00
85224;BME280;75619;51.316;4.824;2024-03-08T03:20:17;101326.31;;;2.01;100.00
85224;BME280;75619;51.316;4.824;2024-03-08T03:22:49;101318.78;;;1.92;100.00
85224;BME280;75619;51.316;4.824;2024-03-08T03:25:21;101325.00;;;1.88;100.00
85224;BME280;75619;51.316;4.824;2024-03-08T03:27:52;101322.72;;;1.77;100.00
85224;BME280;75619;51.316;4.824;2024-03-08T03:30:18;101317.56;;;1.76;100.00
85224;BME280;75619;51.316;4.824;2024-03-08T03:32:47;101316.72;;;1.75;100.00
85224;BME280;75619;51.316;4.824;2024-03-08T03:35:14;101320.25;;;1.73;100.00
85224;BME280;75619;51.316;4.824;2024-03-08T03:37:40;101311.75;;;1.68;100.00
85224;BME280;75619;51.316;4.824;2024-03-08T03:40:09;101311.63;;;1.71;100.00
85224;BME280;75619;51.316;4.824;2024-03-08T03:42:34;101310.03;;;1.67;100.00
85224;BME280;75619;51.316;4.824;2024-03-08T03:45:00;101304.69;;;1.71;100.00
85224;BME280;75619;51.316;4.824;2024-03-08T03:47:27;101305.56;;;1.70;100.00
85224;BME280;75619;51.316;4.824;2024-03-08T03:49:53;101302.28;;;1.63;100.00
85224;BME280;75619;51.316;4.824;2024-03-08T03:52:19;101304.25;;;1.57;100.00
85224;BME280;75619;51.316;4.824;2024-03-08T03:54:45;101307.66;;;1.59;100.00
85224;BME280;75619;51.316;4.824;2024-03-08T03:57:11;101300.00;;;1.54;100.00
85224;BME280;75619;51.316;4.824;2024-03-08T03:59:37;101305.94;;;1.58;100.00
85224;BME280;75619;51.316;4.824;2024-03-08T04:02:03;101298.19;;;1.56;100.00
85224;BME280;75619;51.316;4.824;2024-03-08T04:04:29;101294.03;;;1.49;100.00
85224;BME280;75619;51.316;4.824;2024-03-08T04:06:55;101295.97;;;1.44;100.00
85224;BME280;75619;51.316;4.824;2024-03-08T04:09:20;101291.38;;;1.52;100.00
85224;BME280;75619;51.316;4.824;2024-03-08T04:11:48;101282.56;;;1.56;100.00
85224;BME280;75619;51.316;4.824;2024-03-08T04:14:14;101282.75;;;1.50;100.00
85224;BME280;75619;51.316;4.824;2024-03-08T04:16:40;101280.94;;;1.52;100.00
85224;BME280;75619;51.316;4.824;2024-03-08T04:19:05;101279.16;;;1.54;100.00
85224;BME280;75619;51.316;4.824;2024-03-08T04:21:31;101275.78;;;1.51;100.00
85224;BME280;75619;51.316;4.824;2024-03-08T04:23:57;101277.41;;;1.53;100.00
85224;BME280;75619;51.316;4.824;2024-03-08T04:26:22;101272.50;;;1.44;100.00
85224;BME280;75619;51.316;4.824;2024-03-08T04:28:48;101268.25;;;1.42;100.00
85224;BME280;75619;51.316;4.824;2024-03-08T04:31:13;101256.03;;;1.44;100.00
85224;BME280;75619;51.316;4.824;2024-03-08T04:33:41;101255.09;;;1.45;100.00
85224;BME280;75619;51.316;4.824;2024-03-08T04:36:06;101260.03;;;1.54;100.00
85224;BME280;75619;51.316;4.824;2024-03-08T04:38:33;101259.31;;;1.50;100.00
85224;BME280;75619;51.316;4.824;2024-03-08T04:41:00;101252.66;;;1.40;100.00
85224;BME280;75619;51.316;4.824;2024-03-08T04:43:27;101256.28;;;1.35;100.00
85224;BME280;75619;51.316;4.824;2024-03-08T04:45:55;101250.94;;;1.39;100.00
85224;BME280;75619;51.316;4.824;2024-03-08T04:48:21;101251.06;;;1.36;100.00
85224;BME280;75619;51.316;4.824;2024-03-08T04:50:46;101252.88;;;1.33;100.00
85224;BME280;75619;51.316;4.824;2024-03-08T04:53:12;101246.53;;;1.41;100.00
85224;BME280;75619;51.316;4.824;2024-03-08T04:55:37;101245.56;;;1.45;100.00
85224;BME280;75619;51.316;4.824;2024-03-08T04:58:03;101254.28;;;1.44;100.00
85224;BME280;75619;51.316;4.824;2024-03-08T05:00:31;101238.69;;;1.43;100.00
85224;BME280;75619;51.316;4.824;2024-03-08T05:02:58;101241.16;;;1.47;100.00
85224;BME280;75619;51.316;4.824;2024-03-08T05:05:23;101239.47;;;1.45;100.00
85224;BME280;75619;51.316;4.824;2024-03-08T05:07:51;101235.31;;;1.39;100.00
85224;BME280;75619;51.316;4.824;2024-03-08T05:10:17;101230.22;;;1.36;100.00
85224;BME280;75619;51.316;4.824;2024-03-08T05:12:43;101233.47;;;1.43;100.00
85224;BME280;75619;51.316;4.824;2024-03-08T05:15:09;101232.97;;;1.32;100.00
85224;BME280;75619;51.316;4.824;2024-03-08T05:17:35;101235.69;;;1.27;100.00
85224;BME280;75619;51.316;4.824;2024-03-08T05:20:00;101222.88;;;1.21;100.00
85224;BME280;75619;51.316;4.824;2024-03-08T05:22:26;101217.75;;;1.18;100.00
85224;BME280;75619;51.316;4.824;2024-03-08T05:24:52;101221.31;;;1.16;100.00
85224;BME280;75619;51.316;4.824;2024-03-08T05:27:17;101217.75;;;1.18;100.00
85224;BME280;75619;51.316;4.824;2024-03-08T05:29:43;101222.19;;;1.15;100.00
85224;BME280;75619;51.316;4.824;2024-03-08T05:32:08;101217.94;;;1.12;100.00
85224;BME280;75619;51.316;4.824;2024-03-08T05:34:35;101213.44;;;1.17;100.00
85224;BME280;75619;51.316;4.824;2024-03-08T05:37:01;101214.19;;;1.21;100.00
85224;BME280;75619;51.316;4.824;2024-03-08T05:39:27;101215.06;;;1.21;100.00
85224;BME280;75619;51.316;4.824;2024-03-08T05:41:52;101208.72;;;1.30;100.00
85224;BME280;75619;51.316;4.824;2024-03-08T05:44:18;101211.53;;;1.22;100.00
85224;BME280;75619;51.316;4.824;2024-03-08T05:46:44;101199.31;;;1.24;100.00
85224;BME280;75619;51.316;4.824;2024-03-08T05:49:12;101213.94;;;1.28;100.00
85224;BME280;75619;51.316;4.824;2024-03-08T05:51:39;101207.00;;;1.29;100.00
85224;BME280;75619;51.316;4.824;2024-03-08T05:54:06;101197.72;;;1.20;100.00
85224;BME280;75619;51.316;4.824;2024-03-08T05:56:34;101190.91;;;1.16;100.00
85224;BME280;75619;51.316;4.824;2024-03-08T05:58:59;101188.41;;;1.13;100.00
85224;BME280;75619;51.316;4.824;2024-03-08T06:01:26;101202.31;;;1.12;100.00
85224;BME280;75619;51.316;4.824;2024-03-08T06:03:55;101191.69;;;1.18;100.00
85224;BME280;75619;51.316;4.824;2024-03-08T06:06:22;101178.66;;;1.20;100.00
85224;BME280;75619;51.316;4.824;2024-03-08T06:08:48;101192.50;;;1.20;100.00
85224;BME280;75619;51.316;4.824;2024-03-08T06:11:18;101198.69;;;1.18;100.00
85224;BME280;75619;51.316;4.824;2024-03-08T06:13:47;101185.66;;;1.18;100.00
85224;BME280;75619;51.316;4.824;2024-03-08T06:16:12;101178.47;;;1.26;100.00
85224;BME280;75619;51.316;4.824;2024-03-08T06:18:38;101168.75;;;1.31;100.00
85224;BME280;75619;51.316;4.824;2024-03-08T06:21:05;101172.94;;;1.35;100.00
85224;BME280;75619;51.316;4.824;2024-03-08T06:23:34;101169.31;;;1.40;100.00
85224;BME280;75619;51.316;4.824;2024-03-08T06:26:01;101164.06;;;1.42;100.00
85224;BME280;75619;51.316;4.824;2024-03-08T06:28:26;101162.25;;;1.44;100.00
85224;BME280;75619;51.316;4.824;2024-03-08T06:30:52;101167.53;;;1.42;100.00
85224;BME280;75619;51.316;4.824;2024-03-08T06:33:18;101169.19;;;1.43;100.00
85224;BME280;75619;51.316;4.824;2024-03-08T06:35:44;101163.78;;;1.49;100.00
85224;BME280;75619;51.316;4.824;2024-03-08T06:38:09;101166.25;;;1.54;100.00
85224;BME280;75619;51.316;4.824;2024-03-08T06:40:35;101156.69;;;1.54;100.00
85224;BME280;75619;51.316;4.824;2024-03-08T06:43:00;101152.16;;;1.59;100.00
85224;BME280;75619;51.316;4.824;2024-03-08T06:45:26;101149.53;;;1.61;100.00
85224;BME280;75619;51.316;4.824;2024-03-08T06:47:52;101153.88;;;1.60;100.00
85224;BME280;75619;51.316;4.824;2024-03-08T06:50:17;101155.50;;;1.64;100.00
85224;BME280;75619;51.316;4.824;2024-03-08T06:52:43;101158.16;;;1.63;100.00
85224;BME280;75619;51.316;4.824;2024-03-08T06:55:10;101146.72;;;1.67;100.00
85224;BME280;75619;51.316;4.824;2024-03-08T06:57:39;101149.28;;;1.69;100.00
85224;BME280;75619;51.316;4.824;2024-03-08T07:00:07;101146.47;;;1.75;100.00
85224;BME280;75619;51.316;4.824;2024-03-08T07:02:35;101151.59;;;1.78;100.00
85224;BME280;75619;51.316;4.824;2024-03-08T07:05:01;101154.13;;;1.79;100.00
85224;BME280;75619;51.316;4.824;2024-03-08T07:07:27;101147.97;;;1.82;100.00
85224;BME280;75619;51.316;4.824;2024-03-08T07:09:52;101148.44;;;1.93;100.00
85224;BME280;75619;51.316;4.824;2024-03-08T07:12:18;101145.78;;;1.94;100.00
85224;BME280;75619;51.316;4.824;2024-03-08T07:14:46;101138.56;;;2.02;100.00
85224;BME280;75619;51.316;4.824;2024-03-08T07:17:12;101139.34;;;2.04;100.00
85224;BME280;75619;51.316;4.824;2024-03-08T07:19:38;101134.59;;;2.15;100.00
85224;BME280;75619;51.316;4.824;2024-03-08T07:22:04;101126.53;;;2.23;100.00
85224;BME280;75619;51.316;4.824;2024-03-08T07:24:35;101130.59;;;2.30;100.00
85224;BME280;75619;51.316;4.824;2024-03-08T07:27:19;101126.28;;;2.29;100.00
85224;BME280;75619;51.316;4.824;2024-03-08T07:29:44;101122.50;;;2.37;100.00
85224;BME280;75619;51.316;4.824;2024-03-08T07:32:11;101121.41;;;2.43;100.00
85224;BME280;75619;51.316;4.824;2024-03-08T07:34:44;101117.84;;;2.45;100.00
85224;BME280;75619;51.316;4.824;2024-03-08T07:37:10;101107.25;;;2.50;100.00
85224;BME280;75619;51.316;4.824;2024-03-08T07:39:39;101105.88;;;2.63;100.00
85224;BME280;75619;51.316;4.824;2024-03-08T07:42:04;101103.22;;;2.65;100.00
85224;BME280;75619;51.316;4.824;2024-03-08T07:44:30;101097.47;;;2.78;100.00
85224;BME280;75619;51.316;4.824;2024-03-08T07:46:57;101089.56;;;2.80;100.00
85224;BME280;75619;51.316;4.824;2024-03-08T07:49:22;101089.31;;;2.86;100.00
85224;BME280;75619;51.316;4.824;2024-03-08T07:51:48;101092.72;;;2.88;100.00
85224;BME280;75619;51.316;4.824;2024-03-08T07:54:14;101095.84;;;2.97;100.00
85224;BME280;75619;51.316;4.824;2024-03-08T07:56:40;101082.53;;;3.03;100.00
85224;BME280;75619;51.316;4.824;2024-03-08T07:59:06;101077.84;;;3.11;100.00
85224;BME280;75619;51.316;4.824;2024-03-08T08:01:32;101075.06;;;3.16;100.00
85224;BME280;75619;51.316;4.824;2024-03-08T08:03:59;101076.72;;;3.18;100.00
85224;BME280;75619;51.316;4.824;2024-03-08T08:06:29;101077.44;;;3.22;100.00
85224;BME280;75619;51.316;4.824;2024-03-08T08:08:58;101079.41;;;3.37;100.00
85224;BME280;75619;51.316;4.824;2024-03-08T08:11:27;101072.03;;;3.47;100.00
85224;BME280;75619;51.316;4.824;2024-03-08T08:13:54;101070.88;;;3.54;100.00
85224;BME280;75619;51.316;4.824;2024-03-08T08:16:23;101070.72;;;3.77;100.00
85224;BME280;75619;51.316;4.824;2024-03-08T08:18:49;101063.72;;;3.97;100.00
85224;BME280;75619;51.316;4.824;2024-03-08T08:21:15;101060.03;;;4.22;100.00
85224;BME280;75619;51.316;4.824;2024-03-08T08:23:41;101047.44;;;4.48;100.00
85224;BME280;75619;51.316;4.824;2024-03-08T08:26:06;101049.06;;;4.69;100.00
85224;BME280;75619;51.316;4.824;2024-03-08T08:28:33;101049.81;;;4.90;100.00
85224;BME280;75619;51.316;4.824;2024-03-08T08:30:59;101052.84;;;5.00;100.00
85224;BME280;75619;51.316;4.824;2024-03-08T08:33:25;101042.94;;;5.23;100.00
85224;BME280;75619;51.316;4.824;2024-03-08T08:35:51;101033.47;;;5.38;100.00
85224;BME280;75619;51.316;4.824;2024-03-08T08:38:19;101035.63;;;5.47;100.00
85224;BME280;75619;51.316;4.824;2024-03-08T08:40:45;101030.13;;;5.34;100.00
85224;BME280;75619;51.316;4.824;2024-03-08T08:43:14;101029.06;;;5.38;100.00
85224;BME280;75619;51.316;4.824;2024-03-08T08:45:39;101025.44;;;5.58;100.00
85224;BME280;75619;51.316;4.824;2024-03-08T08:48:06;101012.47;;;5.72;100.00
85224;BME280;75619;51.316;4.824;2024-03-08T08:50:32;101012.81;;;5.82;100.00
85224;BME280;75619;51.316;4.824;2024-03-08T08:52:57;101013.50;;;6.02;100.00
85224;BME280;75619;51.316;4.824;2024-03-08T08:55:23;101010.63;;;5.91;100.00
85224;BME280;75619;51.316;4.824;2024-03-08T08:57:52;100993.97;;;6.08;100.00
85224;BME280;75619;51.316;4.824;2024-03-08T09:00:21;100986.97;;;6.24;100.00
85224;BME280;75619;51.316;4.824;2024-03-08T09:02:49;100989.00;;;6.34;100.00
85224;BME280;75619;51.316;4.824;2024-03-08T09:05:16;100983.75;;;6.34;100.00
85224;BME280;75619;51.316;4.824;2024-03-08T09:07:45;100989.34;;;6.28;100.00
85224;BME280;75619;51.316;4.824;2024-03-08T09:10:11;100981.88;;;6.36;100.00
85224;BME280;75619;51.316;4.824;2024-03-08T09:12:40;100982.16;;;6.47;100.00
85224;BME280;75619;51.316;4.824;2024-03-08T09:15:06;100971.47;;;6.50;100.00
85224;BME280;75619;51.316;4.824;2024-03-08T09:17:37;100967.63;;;6.56;100.00
85224;BME280;75619;51.316;4.824;2024-03-08T09:20:09;100970.91;;;6.45;100.00
85224;BME280;75619;51.316;4.824;2024-03-08T09:22:35;100958.44;;;6.49;100.00
85224;BME280;75619;51.316;4.824;2024-03-08T09:25:01;100953.28;;;6.47;100.00
85224;BME280;75619;51.316;4.824;2024-03-08T09:27:27;100945.81;;;6.56;100.00
85224;BME280;75619;51.316;4.824;2024-03-08T09:29:54;100947.91;;;6.65;100.00
85224;BME280;75619;51.316;4.824;2024-03-08T09:32:20;100942.88;;;6.76;100.00
85224;BME280;75619;51.316;4.824;2024-03-08T09:34:45;100949.41;;;6.84;100.00
85224;BME280;75619;51.316;4.824;2024-03-08T09:37:11;100934.28;;;6.88;100.00
85224;BME280;75619;51.316;4.824;2024-03-08T09:39:38;100926.19;;;6.77;100.00
85224;BME280;75619;51.316;4.824;2024-03-08T09:42:03;100926.59;;;6.85;100.00
85224;BME280;75619;51.316;4.824;2024-03-08T09:44:31;100914.63;;;6.95;100.00
85224;BME280;75619;51.316;4.824;2024-03-08T09:46:58;100909.56;;;7.06;100.00
85224;BME280;75619;51.316;4.824;2024-03-08T09:49:24;100894.38;;;7.11;100.00
85224;BME280;75619;51.316;4.824;2024-03-08T09:51:50;100895.16;;;7.27;100.00
85224;BME280;75619;51.316;4.824;2024-03-08T09:54:17;100891.22;;;7.34;100.00
85224;BME280;75619;51.316;4.824;2024-03-08T09:56:42;100880.22;;;7.42;100.00
85224;BME280;75619;51.316;4.824;2024-03-08T09:59:10;100882.59;;;7.46;100.00
85224;BME280;75619;51.316;4.824;2024-03-08T10:01:54;100876.00;;;7.67;100.00
85224;BME280;75619;51.316;4.824;2024-03-08T10:04:22;100871.50;;;7.69;100.00
85224;BME280;75619;51.316;4.824;2024-03-08T10:06:48;100868.28;;;7.78;100.00
85224;BME280;75619;51.316;4.824;2024-03-08T10:09:14;100851.59;;;7.65;100.00
85224;BME280;75619;51.316;4.824;2024-03-08T10:11:40;100866.25;;;7.69;100.00
85224;BME280;75619;51.316;4.824;2024-03-08T10:14:08;100854.94;;;7.81;100.00
85224;BME280;75619;51.316;4.824;2024-03-08T10:16:34;100854.56;;;7.87;100.00
85224;BME280;75619;51.316;4.824;2024-03-08T10:19:00;100846.44;;;7.90;100.00
85224;BME280;75619;51.316;4.824;2024-03-08T10:21:26;100845.34;;;8.21;100.00
85224;BME280;75619;51.316;4.824;2024-03-08T10:23:52;100839.03;;;8.24;100.00
85224;BME280;75619;51.316;4.824;2024-03-08T10:26:18;100845.25;;;8.23;100.00
85224;BME280;75619;51.316;4.824;2024-03-08T10:28:48;100837.91;;;8.28;100.00
85224;BME280;75619;51.316;4.824;2024-03-08T10:31:17;100836.38;;;8.24;100.00
85224;BME280;75619;51.316;4.824;2024-03-08T10:33:43;100830.78;;;8.30;100.00
85224;BME280;75619;51.316;4.824;2024-03-08T10:36:10;100821.00;;;8.32;100.00
85224;BME280;75619;51.316;4.824;2024-03-08T10:38:37;100820.25;;;8.42;100.00
85224;BME280;75619;51.316;4.824;2024-03-08T10:41:10;100811.88;;;8.50;100.00
85224;BME280;75619;51.316;4.824;2024-03-08T10:44:10;100802.59;;;8.57;100.00
85224;BME280;75619;51.316;4.824;2024-03-08T10:50:18;100804.22;;;8.72;100.00
85224;BME280;75619;51.316;4.824;2024-03-08T10:52:51;100787.53;;;8.59;100.00
85224;BME280;75619;51.316;4.824;2024-03-08T10:55:18;100794.41;;;8.74;100.00
85224;BME280;75619;51.316;4.824;2024-03-08T10:57:46;100784.72;;;8.87;100.00
85224;BME280;75619;51.316;4.824;2024-03-08T11:00:13;100782.81;;;8.89;100.00
85224;BME280;75619;51.316;4.824;2024-03-08T11:02:43;100773.66;;;8.94;100.00
85224;BME280;75619;51.316;4.824;2024-03-08T11:05:31;100781.44;;;8.96;100.00
85224;BME280;75619;51.316;4.824;2024-03-08T11:08:02;100779.03;;;9.18;100.00
85224;BME280;75619;51.316;4.824;2024-03-08T11:10:28;100771.41;;;9.26;100.00
85224;BME280;75619;51.316;4.824;2024-03-08T11:12:54;100769.41;;;9.30;100.00
85224;BME280;75619;51.316;4.824;2024-03-08T11:15:19;100768.22;;;9.34;100.00
85224;BME280;75619;51.316;4.824;2024-03-08T11:17:47;100763.38;;;9.40;100.00
85224;BME280;75619;51.316;4.824;2024-03-08T11:20:18;100773.50;;;9.34;100.00
85224;BME280;75619;51.316;4.824;2024-03-08T11:22:53;100762.16;;;9.21;100.00
85224;BME280;75619;51.316;4.824;2024-03-08T11:25:39;100759.09;;;9.02;100.00
85224;BME280;75619;51.316;4.824;2024-03-08T11:28:17;100763.41;;;9.15;100.00
85224;BME280;75619;51.316;4.824;2024-03-08T11:33:30;100745.88;;;9.27;100.00
85224;BME280;75619;51.316;4.824;2024-03-08T11:36:10;100747.34;;;9.31;100.00
85224;BME280;75619;51.316;4.824;2024-03-08T11:38:45;100747.97;;;9.34;100.00
85224;BME280;75619;51.316;4.824;2024-03-08T11:41:21;100748.06;;;9.45;100.00
85224;BME280;75619;51.316;4.824;2024-03-08T11:43:47;100748.88;;;9.46;100.00
85224;BME280;75619;51.316;4.824;2024-03-08T11:46:14;100750.19;;;9.40;100.00
85224;BME280;75619;51.316;4.824;2024-03-08T11:48:41;100744.03;;;9.40;100.00
85224;BME280;75619;51.316;4.824;2024-03-08T11:51:13;100737.44;;;9.34;100.00
85224;BME280;75619;51.316;4.824;2024-03-08T11:53:40;100739.09;;;9.35;100.00
85224;BME280;75619;51.316;4.824;2024-03-08T11:56:13;100736.38;;;9.37;100.00
85224;BME280;75619;51.316;4.824;2024-03-08T11:58:40;100724.56;;;9.30;100.00
85224;BME280;75619;51.316;4.824;2024-03-08T12:01:08;100719.56;;;9.38;100.00
85224;BME280;75619;51.316;4.824;2024-03-08T12:03:40;100723.16;;;9.49;100.00
85224;BME280;75619;51.316;4.824;2024-03-08T12:06:08;100710.59;;;9.40;100.00
85224;BME280;75619;51.316;4.824;2024-03-08T12:08:37;100715.59;;;9.56;100.00
85224;BME280;75619;51.316;4.824;2024-03-08T12:11:06;100710.53;;;9.65;100.00
85224;BME280;75619;51.316;4.824;2024-03-08T12:13:34;100709.94;;;9.73;100.00
85224;BME280;75619;51.316;4.824;2024-03-08T12:16:01;100701.09;;;9.74;100.00
85224;BME280;75619;51.316;4.824;2024-03-08T12:18:33;100705.94;;;9.91;100.00
85224;BME280;75619;51.316;4.824;2024-03-08T12:21:08;100694.38;;;9.81;100.00
85224;BME280;75619;51.316;4.824;2024-03-08T12:23:36;100677.75;;;9.92;100.00
85224;BME280;75619;51.316;4.824;2024-03-08T12:26:25;100693.22;;;9.61;100.00
85224;BME280;75619;51.316;4.824;2024-03-08T12:28:52;100677.81;;;9.79;100.00
85224;BME280;75619;51.316;4.824;2024-03-08T12:31:17;100681.09;;;9.83;100.00
85224;BME280;75619;51.316;4.824;2024-03-08T12:33:53;100669.81;;;9.81;100.00
85224;BME280;75619;51.316;4.824;2024-03-08T12:36:20;100662.22;;;9.76;100.00
85224;BME280;75619;51.316;4.824;2024-03-08T12:38:46;100663.69;;;9.91;100.00
85224;BME280;75619;51.316;4.824;2024-03-08T12:41:16;100639.94;;;9.91;100.00
85224;BME280;75619;51.316;4.824;2024-03-08T12:43:44;100658.00;;;9.97;100.00
85224;BME280;75619;51.316;4.824;2024-03-08T12:46:23;100645.94;;;9.93;100.00
85224;BME280;75619;51.316;4.824;2024-03-08T12:48:52;100637.13;;;10.05;100.00
85224;BME280;75619;51.316;4.824;2024-03-08T12:51:20;100640.91;;;10.25;100.00
85224;BME280;75619;51.316;4.824;2024-03-08T12:53:46;100630.47;;;10.23;100.00
85224;BME280;75619;51.316;4.824;2024-03-08T12:56:31;100639.47;;;10.21;100.00